Time;durP1;ratioP1;P1;durP2;ratioP2;P2;SDS_P1;SDS_P2;PMS_P1;PMS_P2;Temp;Humidity;BMP_temperature;BMP_pressure;BME280_temperature;BME280_humidity;BME280_pressure;Samples;Min_cycle;Max_cycle;Signal;HPM_P1;HPM_P2
2022/05/07 00:02:18;;;;;;;27.00;11.20;;;;;;;6.18;70.05;100483.04;213770;1274;142627;-67
2022/05/07 00:07:21;;;;;;;15.50;10.60;;;;;;;6.14;70.70;100481.08;213791;1274;141349;-66
2022/05/07 00:12:23;;;;;;;13.50;9.80;;;;;;;6.11;70.98;100480.86;214100;1274;141254;-68
2022/05/07 00:22:49;;;;;;;26.10;14.20;;;;;;;6.31;71.93;100475.38;213248;1274;142246;-67
2022/05/07 00:27:52;;;;;;;16.10;14.20;;;;;;;6.48;72.36;100474.34;214098;1275;141306;-64
2022/05/07 00:32:54;;;;;;;15.80;12.90;;;;;;;6.63;72.62;100473.38;213432;1273;143549;-64
2022/05/07 00:37:56;;;;;;;16.20;12.00;;;;;;;6.72;72.48;100466.97;214869;1274;142438;-66
2022/05/07 00:42:58;;;;;;;18.30;10.80;;;;;;;6.75;72.46;100468.98;214319;1274;141069;-68
2022/05/07 00:48:01;;;;;;;17.00;13.00;;;;;;;6.65;71.90;100463.01;214672;1274;141286;-65
2022/05/07 00:53:04;;;;;;;19.40;11.60;;;;;;;6.65;72.38;100464.30;214850;1274;140715;-67
2022/05/07 00:58:06;;;;;;;16.70;11.30;;;;;;;6.64;72.08;100461.80;214559;1274;140735;-68
2022/05/07 01:03:10;;;;;;;13.70;10.50;;;;;;;6.52;71.85;100454.41;215811;1274;141119;-68
2022/05/07 01:08:14;;;;;;;20.10;12.00;;;;;;;6.44;72.19;100452.95;215922;1274;141988;-67
2022/05/07 01:13:17;;;;;;;16.30;10.90;;;;;;;6.41;72.14;100449.96;215302;1274;141000;-67
2022/05/07 01:18:20;;;;;;;12.50;9.80;;;;;;;6.37;71.83;100447.16;215755;1273;142307;-68
2022/05/07 01:23:27;;;;;;;16.70;10.60;;;;;;;6.28;71.99;100450.16;214656;1274;143633;-64
2022/05/07 01:28:30;;;;;;;17.90;11.70;;;;;;;6.22;72.13;100449.65;214015;1274;142154;-64
2022/05/07 01:33:34;;;;;;;15.10;11.20;;;;;;;6.23;72.33;100451.00;214424;1274;141924;-65
2022/05/07 01:38:38;;;;;;;12.20;9.90;;;;;;;6.24;72.36;100448.08;213754;1274;142733;-65
2022/05/07 01:43:41;;;;;;;14.40;8.90;;;;;;;6.14;72.17;100442.58;215145;1274;142210;-65
2022/05/07 01:48:44;;;;;;;26.70;9.80;;;;;;;5.98;72.26;100439.30;213212;1274;141684;-65
2022/05/07 01:53:47;;;;;;;17.90;10.30;;;;;;;5.83;72.03;100437.97;213880;1274;140590;-65
2022/05/07 01:58:50;;;;;;;21.00;11.60;;;;;;;5.70;72.36;100439.42;214639;1274;140536;-65
2022/05/07 02:03:54;;;;;;;11.10;9.30;;;;;;;5.68;72.77;100440.45;213265;1275;141455;-64
2022/05/07 02:08:57;;;;;;;13.70;9.50;;;;;;;5.61;72.49;100438.48;214340;1274;141988;-65
2022/05/07 02:14:01;;;;;;;19.80;11.40;;;;;;;5.56;72.65;100438.91;213873;1274;142284;-66
2022/05/07 02:19:04;;;;;;;12.40;10.30;;;;;;;5.56;72.92;100434.36;213949;1274;141352;-67
2022/05/07 02:24:07;;;;;;;18.60;11.50;;;;;;;5.52;72.80;100435.38;213970;1274;140734;-67
2022/05/07 02:29:09;;;;;;;12.90;10.50;;;;;;;5.45;72.77;100439.13;214347;1274;141708;-67
2022/05/07 02:34:13;;;;;;;11.60;10.30;;;;;;;5.37;72.55;100439.30;214082;1274;141514;-67
2022/05/07 02:39:15;;;;;;;12.00;10.80;;;;;;;5.28;72.70;100447.88;214394;1274;141533;-66
2022/05/07 02:44:18;;;;;;;16.50;10.90;;;;;;;5.25;72.72;100449.04;214969;1274;140696;-68
2022/05/07 02:49:21;;;;;;;9.90;8.20;;;;;;;5.14;72.54;100455.09;216090;1274;140854;-67
2022/05/07 02:54:24;;;;;;;11.70;9.90;;;;;;;4.99;72.38;100455.06;214548;1274;140666;-67
2022/05/07 02:59:27;;;;;;;16.30;11.60;;;;;;;4.90;72.97;100454.69;214841;1276;140279;-68
2022/05/07 03:04:30;;;;;;;17.00;11.00;;;;;;;4.94;73.20;100456.34;215606;1274;141323;-66
2022/05/07 03:09:33;;;;;;;14.20;11.90;;;;;;;5.00;73.38;100460.34;215933;1274;141204;-65
2022/05/07 03:14:37;;;;;;;14.30;11.60;;;;;;;4.98;73.09;100458.88;215818;1274;140567;-66
2022/05/07 03:19:40;;;;;;;11.40;9.60;;;;;;;4.96;73.31;100465.27;215449;1272;141049;-64
2022/05/07 03:24:44;;;;;;;17.80;14.20;;;;;;;4.97;73.09;100465.16;215542;1274;140189;-66
2022/05/07 03:29:46;;;;;;;10.70;9.40;;;;;;;5.08;73.22;100472.13;214511;1274;141054;-65
2022/05/07 03:34:48;;;;;;;10.10;9.10;;;;;;;5.07;72.96;100473.09;214856;1275;140780;-64
2022/05/07 03:39:51;;;;;;;16.00;10.70;;;;;;;5.26;72.94;100475.96;214297;1276;140892;-66
2022/05/07 03:44:53;;;;;;;14.70;10.70;;;;;;;5.78;72.68;100478.88;214318;1274;141304;-65
2022/05/07 03:49:57;;;;;;;10.70;8.10;;;;;;;6.23;72.99;100477.80;213610;1275;141368;-66
2022/05/07 03:55:00;;;;;;;12.00;8.60;;;;;;;6.45;72.44;100483.06;213600;1274;141226;-67
2022/05/07 04:00:03;;;;;;;10.40;8.60;;;;;;;6.59;72.23;100486.71;213890;1275;230235;-65
2022/05/07 04:05:07;;;;;;;16.30;13.20;;;;;;;7.00;71.47;100493.92;213159;1275;141400;-65
2022/05/07 04:10:09;;;;;;;12.70;10.80;;;;;;;7.85;71.07;100491.70;213613;1274;142153;-64
2022/05/07 04:15:12;;;;;;;15.40;12.50;;;;;;;9.07;69.48;100488.95;213551;1274;140922;-64
2022/05/07 04:20:16;;;;;;;15.20;12.50;;;;;;;10.42;68.47;100495.05;213846;1274;141203;-65
2022/05/07 04:25:19;;;;;;;12.30;11.00;;;;;;;10.72;67.24;100496.20;213314;1276;142268;-66
2022/05/07 04:30:23;;;;;;;11.80;10.20;;;;;;;10.55;66.80;100497.44;213961;1274;142889;-65
2022/05/07 04:35:26;;;;;;;12.10;10.70;;;;;;;11.18;66.24;100498.20;214285;1273;142822;-66
2022/05/07 04:40:29;;;;;;;16.80;10.30;;;;;;;11.12;66.12;100500.30;214099;1274;141927;-67
2022/05/07 04:45:34;;;;;;;15.30;12.70;;;;;;;11.04;66.59;100503.23;213947;1276;142880;-68
2022/05/07 04:50:40;;;;;;;14.00;10.90;;;;;;;10.98;67.09;100508.18;214999;1276;141873;-68
2022/05/07 04:55:43;;;;;;;18.80;14.30;;;;;;;10.77;67.12;100504.08;213907;1275;142256;-67
2022/05/07 05:00:48;;;;;;;15.50;12.60;;;;;;;10.73;67.80;100509.08;214396;1274;142855;-68
2022/05/07 05:05:51;;;;;;;15.60;12.80;;;;;;;10.81;68.22;100511.85;215072;1276;141665;-67
2022/05/07 05:10:54;;;;;;;15.10;12.60;;;;;;;11.00;68.22;100509.52;214931;1274;141602;-66
2022/05/07 05:15:59;;;;;;;13.60;11.70;;;;;;;13.45;65.65;100508.54;215495;1274;141291;-66
2022/05/07 05:21:02;;;;;;;23.00;17.90;;;;;;;17.75;62.27;100507.05;214546;1274;143330;-66
2022/05/07 05:26:05;;;;;;;30.10;19.50;;;;;;;21.30;58.94;100508.21;214368;1274;141212;-65
2022/05/07 05:31:07;;;;;;;18.70;13.70;;;;;;;24.58;54.79;100508.35;214556;1275;141156;-63
2022/05/07 05:36:12;;;;;;;13.60;11.40;;;;;;;26.25;51.73;100518.83;213925;1274;140636;-63
2022/05/07 05:41:15;;;;;;;11.00;9.60;;;;;;;28.31;47.53;100521.98;214250;1274;141563;-65
2022/05/07 05:46:19;;;;;;;9.80;8.50;;;;;;;29.75;44.28;100529.67;214189;1274;140412;-63
2022/05/07 05:51:22;;;;;;;10.00;8.80;;;;;;;28.92;43.81;100532.18;213558;1274;140373;-64
2022/05/07 05:56:26;;;;;;;9.90;7.90;;;;;;;28.94;41.63;100531.02;214322;1274;154347;-65
2022/05/07 06:01:29;;;;;;;5.70;3.90;;;;;;;29.81;40.05;100531.38;213985;1274;140204;-64
2022/05/07 06:06:33;;;;;;;5.40;4.20;;;;;;;27.96;38.87;100530.71;214685;1274;140190;-63
2022/05/07 06:11:36;;;;;;;3.60;2.70;;;;;;;26.04;39.04;100539.16;213265;1275;140144;-62
2022/05/07 06:16:40;;;;;;;3.00;2.30;;;;;;;24.45;39.05;100536.70;214169;1274;140786;-62
2022/05/07 06:21:44;;;;;;;6.50;3.80;;;;;;;23.59;39.60;100535.55;214998;1274;139672;-65
2022/05/07 06:32:09;;;;;;;10.90;4.40;;;;;;;21.45;40.94;100536.55;214770;1274;140395;-63
2022/05/07 06:37:12;;;;;;;8.50;4.50;;;;;;;20.62;42.19;100535.85;213428;1275;139758;-64
2022/05/07 06:42:15;;;;;;;5.00;4.00;;;;;;;19.97;43.09;100535.44;215061;1274;140089;-65
2022/05/07 06:47:18;;;;;;;3.60;3.30;;;;;;;19.53;43.49;100531.55;215666;1274;140481;-65
2022/05/07 06:52:21;;;;;;;2.40;1.40;;;;;;;19.86;44.00;100532.77;213071;1274;161908;-67
2022/05/07 06:57:27;;;;;;;3.10;2.20;;;;;;;21.44;43.29;100534.73;215922;1274;160596;-66
2022/05/07 07:02:31;;;;;;;2.50;1.80;;;;;;;23.48;41.67;100531.42;215960;1274;140213;-65
2022/05/07 07:07:35;;;;;;;2.10;1.90;;;;;;;25.05;40.44;100531.36;216109;1274;141028;-68
2022/05/07 07:12:40;;;;;;;3.90;1.50;;;;;;;25.95;39.88;100532.43;215140;1274;140341;-67
2022/05/07 07:17:42;;;;;;;3.40;1.20;;;;;;;26.41;38.87;100538.38;213875;1274;140622;-66
2022/05/07 07:22:46;;;;;;;1.30;1.20;;;;;;;26.43;38.17;100539.41;214544;1274;141135;-66
2022/05/07 07:27:50;;;;;;;1.60;1.00;;;;;;;26.27;37.81;100538.80;213467;1274;141285;-66
2022/05/07 07:32:56;;;;;;;2.40;2.20;;;;;;;25.91;37.60;100537.86;213741;1274;140816;-66
2022/05/07 07:38:00;;;;;;;2.10;1.90;;;;;;;25.37;37.91;100534.52;213931;1276;140834;-65
2022/05/07 07:43:02;;;;;;;2.60;1.90;;;;;;;25.28;38.44;100531.23;213361;1276;141431;-68
2022/05/07 07:48:07;;;;;;;1.90;1.80;;;;;;;25.34;38.86;100522.92;213105;1274;719221;-67
2022/05/07 07:53:14;;;;;;;3.10;2.90;;;;;;;25.18;38.48;100530.43;213955;1274;142259;-66
2022/05/07 07:58:17;;;;;;;;;;;;;;;24.81;37.74;100529.99;214104;1274;140931;-66
2022/05/07 08:03:21;;;;;;;5.40;2.60;;;;;;;24.27;38.20;100531.36;213705;1275;126732;-65
2022/05/07 08:13:48;;;;;;;2.30;1.90;;;;;;;24.07;38.77;100522.13;213879;1274;140064;-66
2022/05/07 08:18:51;;;;;;;2.30;1.90;;;;;;;24.38;38.42;100520.48;213804;1274;140905;-67
2022/05/07 08:23:53;;;;;;;2.40;2.20;;;;;;;24.00;38.41;100526.47;213254;1274;140361;-66
2022/05/07 08:28:56;;;;;;;2.70;2.20;;;;;;;23.10;38.42;100527.64;214847;1274;140273;-68
2022/05/07 08:34:00;;;;;;;1.10;1.00;;;;;;;22.96;39.04;100527.14;215272;1274;139995;-67
2022/05/07 08:39:04;;;;;;;3.10;1.90;;;;;;;23.29;39.29;100520.93;214431;1274;142190;-67
2022/05/07 08:44:09;;;;;;;3.30;1.40;;;;;;;23.52;38.94;100522.86;214568;1274;141864;-66
2022/05/07 08:49:12;;;;;;;1.20;1.10;;;;;;;23.68;38.56;100522.34;215885;1274;140074;-68
2022/05/07 08:54:15;;;;;;;1.70;1.60;;;;;;;23.49;37.97;100520.42;214656;1274;139733;-65
2022/05/07 08:59:17;;;;;;;4.30;1.70;;;;;;;23.45;38.41;100522.93;214460;1274;140488;-70
2022/05/07 09:04:20;;;;;;;3.90;2.00;;;;;;;23.41;38.33;100522.18;215240;1274;140109;-70
2022/05/07 09:09:23;;;;;;;2.70;2.20;;;;;;;23.39;38.55;100521.09;215860;1274;140957;-67
2022/05/07 09:14:30;;;;;;;2.10;2.00;;;;;;;23.52;39.04;100523.80;215804;1274;139606;-74
2022/05/07 09:19:32;;;;;;;3.80;2.10;;;;;;;23.74;38.95;100517.22;215818;1274;140887;-70
2022/05/07 09:24:39;;;;;;;1.80;1.70;;;;;;;23.95;38.80;100511.07;214602;1274;140247;-68
2022/05/07 09:29:43;;;;;;;2.70;2.20;;;;;;;23.94;38.28;100512.17;214051;1274;140356;-68
2022/05/07 09:40:12;;;;;;;3.10;1.50;;;;;;;24.01;38.64;100508.60;213537;1274;140316;-69
2022/05/07 09:45:15;;;;;;;4.10;1.80;;;;;;;23.76;37.55;100500.56;214582;1274;139842;-70
2022/05/07 10:02:08;;;;;;;1.60;1.50;;;;;;;23.86;37.35;100490.73;213614;1276;139641;-70
2022/05/07 10:07:19;;;;;;;1.30;1.20;;;;;;;23.60;37.28;100486.09;212763;1277;140059;-70
2022/05/07 10:12:25;;;;;;;2.40;2.10;;;;;;;23.50;37.15;100478.21;213270;1277;141707;-69
2022/05/07 10:17:29;;;;;;;2.60;1.50;;;;;;;23.41;36.84;100472.66;213263;1274;140519;-68
2022/05/07 10:22:32;;;;;;;2.90;1.70;;;;;;;23.53;37.77;100464.34;213462;1274;140431;-71
2022/05/07 10:27:43;;;;;;;1.60;1.40;;;;;;;23.68;37.64;100462.77;214626;1274;141762;-69
2022/05/07 10:32:57;;;;;;;3.70;2.10;;;;;;;23.72;37.68;100463.04;214749;1274;139940;-68
2022/05/07 10:38:10;;;;;;;1.60;1.20;;;;;;;23.62;37.92;100464.34;215426;1274;140338;-71
2022/05/07 10:43:36;;;;;;;1.60;1.50;;;;;;;23.98;38.07;100463.17;215048;1274;142793;-73
2022/05/07 10:48:50;;;;;;;5.00;1.90;;;;;;;24.32;37.27;100458.95;214299;1274;140176;-73
2022/05/07 10:54:00;;;;;;;3.80;1.60;;;;;;;24.37;37.02;100459.86;214914;1274;140231;-71
2022/05/07 10:59:04;;;;;;;2.40;1.60;;;;;;;24.58;36.76;100456.24;215437;1274;141391;-73
2022/05/07 11:04:08;;;;;;;1.90;1.30;;;;;;;24.33;36.83;100454.05;215964;1274;139865;-72
2022/05/07 11:09:16;;;;;;;1.70;1.50;;;;;;;23.79;36.43;100454.65;215623;1274;139841;-70
2022/05/07 11:14:23;;;;;;;2.40;1.50;;;;;;;23.46;37.22;100449.45;216004;1274;141282;-71
2022/05/07 11:19:33;;;;;;;1.10;1.00;;;;;;;23.44;36.94;100447.38;216226;1274;139906;-70
2022/05/07 11:24:37;;;;;;;2.10;1.30;;;;;;;23.29;37.38;100442.43;214942;1274;140329;-66
2022/05/07 11:29:41;;;;;;;1.30;1.30;;;;;;;22.70;37.44;100439.27;213778;1274;142916;-67
2022/05/07 11:34:47;;;;;;;1.50;1.40;;;;;;;22.26;37.86;100439.48;213822;1276;140794;-68
2022/05/07 11:39:52;;;;;;;1.50;1.40;;;;;;;22.25;38.52;100434.60;214045;1274;140725;-66
2022/05/07 11:50:24;;;;;;;2.40;1.60;;;;;;;23.06;37.89;100418.02;214481;1274;141762;-70
2022/05/07 11:55:29;;;;;;;1.40;1.30;;;;;;;23.61;37.51;100410.80;213074;1277;140967;-68
2022/05/07 12:00:40;;;;;;;3.70;1.70;;;;;;;24.03;37.07;100405.66;214418;1274;139735;-71
2022/05/07 12:05:46;;;;;;;6.20;1.80;;;;;;;24.22;36.89;100404.35;213334;1274;140531;-68
2022/05/07 12:10:52;;;;;;;1.70;1.40;;;;;;;24.05;36.77;100404.09;214652;1274;141788;-74
2022/05/07 12:29:48;;;;;;;2.00;1.10;;;;;;;23.35;36.83;100397.81;214250;1274;139896;-74
2022/05/07 12:32:07;;;;;;;7.20;1.70;;;;;;;22.53;37.68;100394.27;213983;1274;140854;-70
2022/05/07 12:37:12;;;;;;;2.30;1.30;;;;;;;22.38;37.61;100386.36;213817;1274;141344;-66
2022/05/07 12:42:16;;;;;;;3.20;1.30;;;;;;;22.51;38.05;100382.79;214412;1274;153961;-66
2022/05/07 12:47:20;;;;;;;1.50;1.30;;;;;;;22.78;37.72;100376.02;214364;1274;141682;-68
2022/05/07 12:52:23;;;;;;;3.80;1.80;;;;;;;23.13;37.85;100372.48;215212;1274;140190;-66
2022/05/07 12:57:28;;;;;;;2.70;1.20;;;;;;;23.47;37.41;100372.91;215820;1276;246169;-70
2022/05/07 13:02:31;;;;;;;1.70;1.50;;;;;;;23.75;37.23;100369.21;215398;1274;140753;-73
2022/05/07 13:07:33;;;;;;;1.60;1.30;;;;;;;23.97;36.62;100374.77;215483;1274;140625;-70
2022/05/07 13:12:39;;;;;;;1.40;1.30;;;;;;;23.94;36.19;100365.90;216117;1274;140131;-72
2022/05/07 13:17:42;;;;;;;1.70;1.30;;;;;;;23.66;36.23;100367.36;215203;1274;150287;-73
2022/05/07 13:22:46;;;;;;;1.30;1.20;;;;;;;23.51;36.15;100363.52;213797;1274;139939;-73
2022/05/07 13:27:50;;;;;;;6.70;1.40;;;;;;;22.85;36.10;100365.54;214501;1274;140433;-69
2022/05/07 13:32:53;;;;;;;1.50;1.40;;;;;;;22.35;36.37;100364.00;215138;1274;140346;-77
2022/05/07 13:37:56;;;;;;;1.70;1.30;;;;;;;22.39;36.86;100354.89;213277;1274;141459;-69
2022/05/07 13:43:01;;;;;;;1.10;1.00;;;;;;;22.22;37.05;100350.19;214724;1274;140744;-71
2022/05/07 13:48:05;;;;;;;1.60;1.40;;;;;;;21.95;37.20;100351.48;213834;1274;139350;-68
2022/05/07 13:53:10;;;;;;;3.20;1.20;;;;;;;21.71;37.60;100351.17;214168;1274;140064;-72
2022/05/07 13:58:13;;;;;;;1.60;1.20;;;;;;;21.59;37.83;100352.21;213213;1274;140227;-69
2022/05/07 14:03:15;;;;;;;3.30;1.60;;;;;;;21.48;38.11;100350.08;213533;1274;140930;-69
2022/05/07 14:08:22;;;;;;;3.50;1.80;;;;;;;21.83;37.89;100335.31;214329;1274;139589;-70
2022/05/07 14:13:25;;;;;;;3.30;1.40;;;;;;;22.05;38.08;100333.57;213634;1274;154695;-68
2022/05/07 14:18:28;;;;;;;1.60;1.50;;;;;;;22.36;37.56;100324.60;214271;1274;140854;-70
2022/05/07 14:23:30;;;;;;;1.50;1.10;;;;;;;22.67;37.60;100317.98;213621;1274;139775;-73
2022/05/07 14:28:34;;;;;;;1.60;1.50;;;;;;;22.93;37.67;100323.59;214662;1274;140127;-66
2022/05/07 14:33:37;;;;;;;2.20;1.20;;;;;;;23.03;37.04;100321.27;213772;1274;140890;-65
2022/05/07 14:39:02;;;;;;;1.50;1.40;;;;;;;23.00;36.48;100319.06;215067;1274;140305;-66
2022/05/07 14:44:06;;;;;;;1.60;1.40;;;;;;;22.92;36.50;100317.64;215032;1274;140224;-65
2022/05/07 14:49:10;;;;;;;1.00;0.90;;;;;;;22.78;36.75;100312.58;215693;1274;140396;-67
2022/05/07 14:54:12;;;;;;;1.50;1.40;;;;;;;22.70;36.90;100303.90;215477;1274;139869;-64
2022/05/07 14:59:15;;;;;;;1.60;1.50;;;;;;;22.82;36.92;100307.99;215686;1274;140682;-66
2022/05/07 15:04:17;;;;;;;2.00;1.70;;;;;;;23.01;36.48;100305.48;215774;1274;141022;-66
2022/05/07 15:14:44;;;;;;;2.10;1.80;;;;;;;23.17;36.47;100294.95;215668;1274;140964;-63
2022/05/07 15:19:48;;;;;;;1.30;1.20;;;;;;;23.13;36.29;100293.88;215864;1274;141466;-64
2022/05/07 15:24:50;;;;;;;1.60;1.50;;;;;;;23.00;36.37;100289.09;213833;1274;142599;-64
2022/05/07 15:29:54;;;;;;;10.00;2.30;;;;;;;22.95;35.96;100289.20;215414;1274;140796;-64
2022/05/07 15:40:19;;;;;;;1.60;1.50;;;;;;;22.52;36.29;100290.29;213272;1274;141790;-65
2022/05/07 15:45:23;;;;;;;1.80;1.70;;;;;;;22.29;36.61;100281.70;214570;1274;141110;-65
2022/05/07 15:50:25;;;;;;;2.00;1.90;;;;;;;22.17;36.65;100279.02;213466;1274;140995;-63
2022/05/07 15:55:28;;;;;;;3.60;2.10;;;;;;;22.07;36.90;100279.61;213313;1274;140777;-64
2022/05/07 16:00:33;;;;;;;2.40;1.90;;;;;;;21.93;37.01;100277.07;214211;1274;141894;-64
2022/05/07 16:05:37;;;;;;;4.80;2.00;;;;;;;21.75;37.22;100274.70;214071;1274;140493;-64
2022/05/07 16:10:46;;;;;;;3.30;1.60;;;;;;;21.65;37.30;100276.61;213496;1274;141702;-65
2022/05/07 16:15:54;;;;;;;3.50;2.00;;;;;;;21.50;37.61;100275.30;213985;1272;141000;-65
2022/05/07 16:20:58;;;;;;;2.50;2.30;;;;;;;21.28;37.61;100278.48;213013;1273;142009;-65
2022/05/07 16:26:10;;;;;;;1.40;1.40;;;;;;;20.98;38.10;100277.57;213483;1274;141862;-65
2022/05/07 16:31:14;;;;;;;3.00;1.90;;;;;;;20.72;38.53;100276.19;213554;1274;143073;-65
2022/05/07 16:36:18;;;;;;;2.00;1.80;;;;;;;20.63;38.69;100278.63;215355;1274;142883;-66
2022/05/07 16:41:21;;;;;;;2.80;1.80;;;;;;;20.63;38.92;100276.79;214585;1274;141167;-65
2022/05/07 16:46:25;;;;;;;4.10;1.40;;;;;;;20.63;39.16;100278.89;213294;1274;152671;-65
2022/05/07 16:51:29;;;;;;;2.60;1.60;;;;;;;20.59;38.89;100275.09;214807;1274;141226;-65
2022/05/07 16:56:35;;;;;;;2.60;1.80;;;;;;;20.53;39.25;100274.92;213068;1274;141002;-65
2022/05/07 17:01:38;;;;;;;4.00;2.10;;;;;;;20.45;39.36;100273.30;214598;1274;142198;-62
2022/05/07 17:06:41;;;;;;;5.10;1.90;;;;;;;20.37;39.47;100272.50;216087;1274;140679;-64
2022/05/07 17:11:47;;;;;;;3.20;2.30;;;;;;;20.28;39.66;100270.94;215970;1274;140035;-64
2022/05/07 17:16:50;;;;;;;4.30;2.10;;;;;;;20.18;40.03;100273.48;215549;1272;140801;-64
2022/05/07 17:21:52;;;;;;;2.40;2.20;;;;;;;20.05;40.55;100273.44;214463;1274;140348;-64
2022/05/07 17:26:55;;;;;;;3.50;2.40;;;;;;;19.88;40.64;100271.09;214769;1274;140402;-67
2022/05/07 17:31:59;;;;;;;2.50;2.20;;;;;;;19.70;41.09;100269.88;214070;1274;142559;-65
2022/05/07 17:37:02;;;;;;;4.20;1.70;;;;;;;19.48;41.64;100274.08;214643;1274;140488;-64
2022/05/07 17:42:05;;;;;;;2.00;1.90;;;;;;;19.26;42.67;100281.27;214813;1274;140099;-64
2022/05/07 17:47:08;;;;;;;4.60;2.40;;;;;;;19.01;43.53;100289.55;214013;1274;143062;-64
2022/05/07 17:52:11;;;;;;;3.10;2.10;;;;;;;18.72;44.30;100293.86;212990;1274;140618;-65
2022/05/07 17:57:15;;;;;;;3.30;2.10;;;;;;;18.39;44.79;100300.83;214134;1274;139473;-63
2022/05/07 18:02:18;;;;;;;3.30;2.30;;;;;;;18.08;45.37;100305.83;213717;1273;140358;-65
2022/05/07 18:07:22;;;;;;;3.60;2.50;;;;;;;17.77;45.61;100308.72;214242;1276;140387;-64
2022/05/07 18:12:25;;;;;;;2.80;2.30;;;;;;;17.46;46.18;100310.63;214228;1274;140935;-66
2022/05/07 18:17:28;;;;;;;2.20;1.60;;;;;;;17.15;46.75;100312.80;214431;1274;142134;-68
2022/05/07 18:22:38;;;;;;;2.20;2.00;;;;;;;16.78;47.70;100319.85;214221;1274;141662;-65
2022/05/07 18:27:42;;;;;;;3.50;2.20;;;;;;;16.41;48.77;100319.43;214171;1274;140162;-65
2022/05/07 18:32:46;;;;;;;3.10;2.80;;;;;;;16.08;49.57;100323.27;214284;1274;140667;-66
2022/05/07 18:43:11;;;;;;;5.30;2.60;;;;;;;15.63;50.49;100330.65;214936;1274;163749;-64
2022/05/07 18:48:15;;;;;;;4.20;2.40;;;;;;;15.35;51.19;100329.73;215163;1274;141245;-65
2022/05/07 18:53:19;;;;;;;3.70;2.20;;;;;;;14.96;51.68;100338.60;216057;1274;141249;-67
2022/05/07 18:58:26;;;;;;;6.20;2.80;;;;;;;14.56;52.30;100340.14;215989;1275;142011;-67
2022/05/07 19:03:31;;;;;;;5.00;3.20;;;;;;;14.25;53.29;100340.60;216101;1274;141951;-66
2022/05/07 19:08:38;;;;;;;4.20;2.60;;;;;;;14.02;53.85;100341.13;215875;1274;142174;-65
2022/05/07 19:13:46;;;;;;;3.40;2.90;;;;;;;13.78;54.77;100344.95;215884;1274;142502;-65
2022/05/07 19:18:50;;;;;;;4.70;2.50;;;;;;;13.52;55.13;100347.70;214451;1274;141671;-69
2022/05/07 19:23:55;;;;;;;13.40;4.00;;;;;;;13.31;55.80;100347.27;213345;1274;141357;-65
2022/05/07 19:29:01;;;;;;;31.40;5.70;;;;;;;13.13;56.31;100353.31;214392;1274;141399;-64
2022/05/07 19:34:06;;;;;;;19.70;5.70;;;;;;;12.94;56.51;100354.29;213880;1274;152564;-64
2022/05/07 19:39:09;;;;;;;13.10;4.10;;;;;;;12.74;56.91;100357.33;213467;1274;141985;-68
2022/05/07 19:44:12;;;;;;;11.80;4.50;;;;;;;12.60;57.29;100356.55;215182;1274;141836;-68
2022/05/07 19:49:15;;;;;;;13.40;5.20;;;;;;;12.45;58.02;100351.44;213425;1274;1056921;-63
2022/05/07 19:54:18;;;;;;;18.00;5.60;;;;;;;12.37;58.49;100349.16;213210;1274;142473;-63
2022/05/07 19:59:22;;;;;;;8.90;4.80;;;;;;;12.20;58.72;100353.93;213331;1274;141192;-64
2022/05/07 20:04:26;;;;;;;29.30;6.20;;;;;;;12.01;59.33;100350.61;213539;1274;141775;-63
2022/05/07 20:09:28;;;;;;;26.60;8.90;;;;;;;11.95;59.80;100352.55;213576;1274;141433;-63
2022/05/07 20:14:34;;;;;;;19.10;6.10;;;;;;;11.93;60.27;100352.78;214294;1274;141261;-64
2022/05/07 20:19:36;;;;;;;11.30;6.20;;;;;;;11.73;60.15;100352.73;214624;1274;141300;-67
2022/05/07 20:24:42;;;;;;;9.50;7.30;;;;;;;11.42;60.46;100351.09;214639;1274;141736;-66
2022/05/07 20:29:45;;;;;;;10.90;5.70;;;;;;;11.18;61.09;100355.33;214913;1274;140875;-65
2022/05/07 20:34:48;;;;;;;12.00;6.20;;;;;;;11.06;61.47;100360.13;214366;1274;142266;-65
2022/05/07 20:39:50;;;;;;;7.60;5.30;;;;;;;11.04;62.03;100362.91;214692;1274;141641;-66
2022/05/07 20:50:14;;;;;;;16.00;6.50;;;;;;;11.00;62.23;100361.41;214379;1275;142251;-64
2022/05/07 20:55:18;;;;;;;15.90;6.30;;;;;;;10.85;62.55;100365.59;215979;1276;143531;-65
2022/05/07 21:00:21;;;;;;;12.40;7.40;;;;;;;10.64;62.66;100363.66;215857;1272;142249;-65
2022/05/07 21:05:26;;;;;;;11.60;9.40;;;;;;;10.45;63.23;100367.67;215955;1274;141526;-65
2022/05/07 21:10:28;;;;;;;15.50;9.30;;;;;;;10.46;63.76;100372.96;215837;1274;141329;-64
2022/05/07 21:15:32;;;;;;;16.30;7.90;;;;;;;10.47;63.89;100373.23;214736;1277;142151;-63
2022/05/07 21:20:36;;;;;;;10.10;6.70;;;;;;;10.39;63.78;100370.89;213685;1276;141436;-65
2022/05/07 21:31:02;;;;;;;12.80;7.80;;;;;;;9.96;64.41;100372.17;214788;1274;140530;-64
2022/05/07 21:36:08;;;;;;;20.40;9.40;;;;;;;9.79;64.79;100369.29;215177;1274;141446;-63
2022/05/07 21:41:18;;;;;;;14.60;12.70;;;;;;;9.70;65.28;100375.98;214960;1274;140962;-64
2022/05/07 21:46:21;;;;;;;22.90;13.10;;;;;;;9.65;65.60;100376.21;213427;1274;141490;-62
2022/05/07 21:56:50;;;;;;;29.90;14.80;;;;;;;9.59;66.08;100376.02;213247;1274;141679;-63
2022/05/07 22:01:53;;;;;;;18.80;14.00;;;;;;;9.52;66.15;100378.52;213853;1274;222848;-65
2022/05/07 22:06:58;;;;;;;26.40;12.00;;;;;;;9.46;66.38;100384.33;214420;1275;142022;-64
2022/05/07 22:12:00;;;;;;;23.20;12.30;;;;;;;9.41;66.72;100383.58;213535;1274;141647;-65
2022/05/07 22:17:04;;;;;;;25.00;14.20;;;;;;;9.45;66.69;100385.40;213735;1274;142326;-64
2022/05/07 22:22:08;;;;;;;18.00;12.00;;;;;;;9.43;66.61;100383.52;213515;1274;142226;-65
2022/05/07 22:27:13;;;;;;;17.10;12.00;;;;;;;9.25;66.81;100382.97;213274;1274;142182;-65
2022/05/07 22:32:17;;;;;;;21.90;13.80;;;;;;;9.03;67.27;100384.84;214873;1274;143765;-64
2022/05/07 22:37:20;;;;;;;30.60;15.40;;;;;;;8.91;67.53;100384.86;214643;1274;142755;-64
2022/05/07 22:42:23;;;;;;;22.10;15.30;;;;;;;8.86;67.41;100386.94;214344;1274;142337;-64
2022/05/07 22:47:26;;;;;;;18.40;14.70;;;;;;;8.90;68.03;100387.27;213946;1274;142215;-63
2022/05/07 22:52:28;;;;;;;26.60;12.30;;;;;;;8.88;67.69;100385.90;215102;1276;142291;-63
2022/05/07 22:57:31;;;;;;;20.70;12.50;;;;;;;8.80;67.99;100384.94;216075;1274;141962;-63
2022/05/07 23:02:33;;;;;;;26.70;14.20;;;;;;;8.65;67.92;100380.41;216153;1274;141795;-62
2022/05/07 23:07:36;;;;;;;25.60;16.50;;;;;;;8.50;68.21;100378.59;214194;1274;142864;-66
2022/05/07 23:12:39;;;;;;;18.60;13.60;;;;;;;8.53;68.42;100378.11;215896;1273;141869;-65
2022/05/07 23:17:42;;;;;;;21.30;15.10;;;;;;;8.47;68.63;100374.80;215991;1274;143796;-64
2022/05/07 23:22:45;;;;;;;23.80;14.20;;;;;;;8.43;68.94;100379.05;213221;1275;142210;-64
2022/05/07 23:27:48;;;;;;;21.40;17.10;;;;;;;8.49;69.33;100377.95;214140;1274;142205;-64
2022/05/07 23:32:52;;;;;;;27.90;18.20;;;;;;;8.49;69.18;100376.35;213796;1274;141952;-65
2022/05/07 23:37:54;;;;;;;22.30;15.30;;;;;;;8.42;68.97;100377.45;215217;1274;140872;-64
2022/05/07 23:42:56;;;;;;;36.20;16.00;;;;;;;8.41;69.28;100385.58;215377;1274;141673;-65
2022/05/07 23:47:59;;;;;;;25.60;17.60;;;;;;;8.44;69.92;100400.38;213427;1274;143045;-62
2022/05/07 23:53:02;;;;;;;26.00;14.90;;;;;;;8.51;70.04;100405.57;213094;1274;142618;-62
2022/05/07 23:58:06;;;;;;;18.50;12.90;;;;;;;8.50;69.88;100400.52;214591;1274;141876;-63
